Latest Weather Observations for Browse Island

IDW60801

Issued at 6:05 pm WST Thursday 2 October 2014 (issued every 30 minutes, with the page automatically refreshed every 10 minutes)

About weather observations | Map of weather stations | Latest weather observations for WA | Other Formats
Station Details ID: 200784 Name: BROWSE ISLAND Lat: -14.11 Lon: 123.55 Height: 3.7 m
Data from the previous 72 hours. | See also: Recent months for locations in Western Australia
Date/Time
WST
Temp
°C
App
Temp
°C
Dew
Point
Rel
Hum
%
Delta-T
°C
Wind Press
QNH
hPa
Press
MSL
hPa
Rain
since 9 am
mm
Dir
 
Spd
km/h
Gust
km/h
Spd
kts
Gust
kts
02/06:00pm 26.8 - - - - WNW 19 20 10 11 1011.0 1011.6 -
02/05:30pm 27.0 - - - - W 19 20 10 11 1011.0 - -
02/05:00pm 26.9 - - - - W 19 - 10 - 1011.0 1011.2 -
02/04:30pm 27.0 - - - - W 19 - 10 - 1011.0 - -
02/04:00pm 27.1 - - - - W 24 - 13 - 1010.0 1010.3 -
02/03:30pm 27.0 - - - - W 20 - 11 - 1010.0 - -
02/03:00pm 27.1 - - - - WNW 19 - 10 - 1010.0 1010.6 -
02/02:30pm 28.0 - - - - NW 19 - 10 - 1010.0 - -
02/02:00pm 27.4 - - - - NW 17 - 9 - 1010.0 1010.8 -
02/01:30pm 28.0 - - - - NW 13 - 7 - 1011.0 - -
02/01:00pm 28.3 - - - - NW 11 - 6 - 1011.0 1011.8 -
02/12:30pm 28.0 - - - - NNW 9 - 5 - 1012.0 - -
02/12:00pm 28.3 - - - - N 7 - 4 - 1013.0 1013.0 -
02/11:30am 28.0 - - - - NNW 11 - 6 - 1013.0 - -
02/11:00am 27.5 - - - - N 15 - 8 - 1013.0 1013.4 -
02/10:30am 27.0 - - - - NNW 13 - 7 - 1013.0 - -
02/10:00am 26.6 - - - - NW 24 - 13 - 1013.0 1013.0 -
02/09:30am 27.0 - - - - NNW 17 - 9 - 1014.0 - -
02/09:00am 26.7 - - - - NW 19 - 10 - 1013.0 1013.7 -
02/08:30am 27.0 - - - - WSW 13 - 7 - 1013.0 - -
02/08:00am 26.9 - - - - WSW 9 - 5 - 1013.0 1013.8 -
02/07:30am 27.0 - - - - WSW 11 9 6 5 1013.0 - -
02/07:00am 26.4 - - - - WSW 13 - 7 - 1013.0 1013.3 -
02/06:30am 26.0 - - - - WSW 15 - 8 - 1012.0 - -
02/06:00am 26.1 - - - - WSW 15 19 8 10 1012.0 1012.5 -
02/05:30am 26.0 - - - - WSW 17 - 9 - 1012.0 - -
02/05:00am 26.2 - - - - WSW 17 - 9 - 1012.0 1012.0 -
02/04:30am 26.0 - - - - W 20 - 11 - 1011.0 - -
02/04:00am 26.1 - - - - W 22 - 12 - 1011.0 1011.0 -
02/03:30am 26.0 - - - - WSW 17 - 9 - 1011.0 - -
02/03:00am 26.2 - - - - W 15 - 8 - 1011.0 1011.4 -
02/02:30am 26.0 - - - - W 17 - 9 - 1011.0 - -
02/02:00am 26.2 - - - - W 11 - 6 - 1011.0 1011.5 -
02/01:30am 26.0 - - - - NW 11 - 6 - 1012.0 - -
02/01:00am 26.3 - - - - NW 13 - 7 - 1011.0 1011.8 -
02/12:30am 26.0 - - - - WNW 13 - 7 - 1012.0 - -
02/12:00am 26.3 - - - - NW 19 - 10 - 1012.0 1012.1 -
 
Date/Time
WST
Temp
°C
App
Temp
°C
Dew
Point
Rel
Hum
%
Delta-T
°C
Wind Press
QNH
hPa
Press
MSL
hPa
Rain
since 9 am
mm
Dir
 
Spd
km/h
Gust
km/h
Spd
kts
Gust
kts
01/11:30pm 26.0 - - - - WNW 17 - 9 - 1012.0 - -
01/11:00pm 26.5 - - - - WNW 17 - 9 - 1012.0 1012.7 -
01/10:30pm 27.0 - - - - WNW 17 - 9 - 1013.0 - -
01/10:00pm 26.5 - - - - WNW 17 - 9 - 1013.0 1013.2 -
01/09:30pm 27.0 - - - - WNW 17 - 9 - 1013.0 - -
01/09:00pm 26.6 - - - - WNW 17 - 9 - 1013.0 1013.3 -
01/08:30pm 27.0 - - - - WNW 17 - 9 - 1013.0 - -
01/08:00pm 26.8 - - - - WNW 15 - 8 - 1012.0 1012.7 -
01/07:30pm 27.0 - - - - NW 17 - 9 - 1012.0 - -
01/07:00pm 26.8 - - - - NW 19 - 10 - 1012.0 1012.0 -
01/06:30pm 27.0 - - - - NW 17 - 9 - 1011.0 - -
01/06:00pm 26.8 - - - - NW 15 15 8 8 1011.0 1011.6 -
01/05:30pm 27.0 - - - - NNW 13 - 7 - 1011.0 - -
01/05:00pm 27.1 - - - - NNW 13 - 7 - 1011.0 1011.3 -
01/04:30pm 28.0 - - - - NNW 13 - 7 - 1011.0 - -
01/04:00pm 27.6 - - - - N 11 - 6 - 1011.0 1011.1 -
01/03:30pm 28.0 - - - - NNW 13 - 7 - 1011.0 - -
01/03:00pm 27.7 - - - - N 13 - 7 - 1011.0 1011.2 -
01/02:30pm 28.0 - - - - N 13 - 7 - 1011.0 - -
01/02:00pm 28.4 - - - - N 13 - 7 - 1011.0 1011.6 -
01/01:30pm 28.0 - - - - NNW 15 - 8 - 1011.0 - -
01/01:00pm 27.8 - - - - NNW 17 - 9 - 1011.0 1011.8 -
01/12:30pm 28.0 - - - - NNW 13 - 7 - 1012.0 - -
01/12:00pm 27.9 - - - - NNW 11 - 6 - 1013.0 1012.9 -
01/11:30am 28.0 - - - - NNW 13 - 7 - 1013.0 - -
01/11:00am 27.7 - - - - NW 15 - 8 - 1013.0 1013.3 -
01/10:30am 27.0 - - - - NW 17 - 9 - 1013.0 - -
01/10:00am 27.0 - - - - WNW 15 - 8 - 1014.0 1014.2 -
01/09:30am 27.0 - - - - NW 15 - 8 - 1014.0 - -
01/09:00am 27.3 - - - - NNW 17 - 9 - 1014.0 1014.5 -
01/08:30am 27.0 - - - - NW 15 - 8 - 1014.0 - -
01/08:00am 26.9 - - - - NW 17 - 9 - 1014.0 1014.3 -
01/07:30am 27.0 - - - - NNW 19 - 10 - 1014.0 - -
01/07:00am 26.4 - - - - NW 17 - 9 - 1013.0 1013.6 -
01/06:30am 26.0 - - - - NW 17 - 9 - 1013.0 - -
01/06:00am 26.2 - - - - NW 17 - 9 - 1012.0 1012.7 -
01/05:30am 26.0 - - - - NNW 17 - 9 - 1012.0 - -
01/05:00am 26.3 - - - - NNW 20 - 11 - 1012.0 1012.4 -
01/04:30am 26.0 - - - - NNW 17 - 9 - 1012.0 - -
01/04:00am 26.4 - - - - NNW 19 - 10 - 1011.0 1011.7 -
01/03:30am 26.0 - - - - NW 22 - 12 - 1011.0 - -
01/03:00am 26.4 - - - - NNW 17 - 9 - 1011.0 1011.3 -
01/02:30am 26.0 - - - - N 15 - 8 - 1011.0 - -
01/02:00am 26.4 - - - - NNW 15 - 8 - 1011.0 1011.5 -
01/01:30am 26.0 - - - - NNW 15 - 8 - 1011.0 - -
01/01:00am 26.3 - - - - NNW 17 - 9 - 1011.0 1011.7 -
01/12:30am 26.0 - - - - NNW 17 - 9 - 1012.0 - -
01/12:00am 26.3 - - - - NNW 17 - 9 - 1012.0 1011.9 -
 
Date/Time
WST
Temp
°C
App
Temp
°C
Dew
Point
Rel
Hum
%
Delta-T
°C
Wind Press
QNH
hPa
Press
MSL
hPa
Rain
since 9 am
mm
Dir
 
Spd
km/h
Gust
km/h
Spd
kts
Gust
kts
30/11:30pm 26.0 - - - - NNW 19 - 10 - 1012.0 - -
30/11:00pm 26.4 - - - - NNW 19 - 10 - 1012.0 1012.3 -
30/10:30pm 26.0 - - - - NNW 19 - 10 - 1012.0 - -
30/10:00pm 26.4 - - - - NNW 17 - 9 - 1012.0 1012.7 -
30/09:30pm 27.0 - - - - NNW 19 - 10 - 1012.0 - -
30/09:00pm 26.6 - - - - NW 17 - 9 - 1012.0 1012.8 -
30/08:30pm 27.0 - - - - NNW 15 - 8 - 1012.0 - -
30/08:00pm 26.6 - - - - NNW 15 - 8 - 1012.0 1012.6 -
30/07:30pm 27.0 - - - - NNW 17 - 9 - 1012.0 - -
30/07:00pm 26.7 - - - - NW 17 - 9 - 1012.0 1012.2 -
30/06:30pm 27.0 - - - - NNW 17 - 9 - 1011.0 - -
30/06:00pm 26.7 - - - - NNW 17 - 9 - 1011.0 1011.4 -
30/05:30pm 27.0 - - - - NNW 20 - 11 - 1011.0 - -
30/05:00pm 26.7 - - - - NW 20 - 11 - 1010.0 1010.3 -
30/04:30pm 27.0 - - - - NW 22 - 12 - 1010.0 - -
30/04:00pm 26.9 - - - - NW 24 - 13 - 1009.0 1009.8 -
30/03:30pm 27.0 - - - - NW 24 - 13 - 1009.0 - -
30/03:00pm 27.0 - - - - NW 22 - 12 - 1010.0 1009.9 -
30/02:30pm 27.0 - - - - NNW 22 - 12 - 1010.0 - -
30/02:00pm 26.9 - - - - NNW 22 - 12 - 1010.0 1010.2 -
30/01:30pm 28.0 - - - - NNW 22 - 12 - 1010.0 - -
30/01:00pm 27.3 - - - - N 20 - 11 - 1010.0 1010.7 -
30/12:30pm 28.0 - - - - N 20 - 11 - 1011.0 - -
30/12:00pm 27.4 - - - - N 20 - 11 - 1011.0 1011.6 -
30/11:30am 28.0 - - - - N 20 - 11 - 1012.0 - -
30/11:00am 26.8 - - - - N 19 - 10 - 1012.0 1012.4 -
30/10:30am 27.0 - - - - N 17 - 9 - 1012.0 - -
30/10:00am 27.2 - - - - NNW 13 - 7 - 1013.0 1013.1 -
30/09:30am 27.0 - - - - NW 13 - 7 - 1013.0 - -
30/09:00am 26.6 - - - - NNW 13 - 7 - 1013.0 1013.3 -
30/08:30am 27.0 - - - - N 11 - 6 - 1013.0 - -
30/08:00am 26.6 - - - - NNW 11 - 6 - 1013.0 1013.3 -
30/07:30am 26.0 - - - - NNW 11 - 6 - 1013.0 - -
30/07:00am 26.2 - - - - NW 7 - 4 - 1012.0 1012.7 -
30/06:30am 26.0 - - - - CALM 0 - 0 - 1012.0 - -
30/06:00am 25.8 - - - - CALM 0 - 0 - 1012.0 1012.3 -
30/05:30am 26.0 - - - - CALM 0 - 0 - 1012.0 - -
30/05:00am 25.8 - - - - CALM 0 - 0 - 1011.0 1011.8 -
30/04:30am 26.0 - - - - CALM 0 - 0 - 1011.0 - -
30/04:00am 26.0 - - - - CALM 0 - 0 - 1011.0 1011.2 -
30/03:30am 26.0 - - - - SW 7 - 4 - 1011.0 - -
30/03:00am 26.2 - - - - SW 9 - 5 - 1011.0 1010.9 -
30/02:30am 26.0 - - - - WSW 11 - 6 - 1010.0 - -
30/02:00am 26.3 - - - - WSW 15 - 8 - 1010.0 1010.6 -
30/01:30am 27.0 - - - - WSW 17 - 9 - 1010.0 - -
30/01:00am 26.6 - - - - W 17 - 9 - 1010.0 1010.6 -
30/12:30am 27.0 - - - - W 17 - 9 - 1010.0 - -
30/12:00am 26.4 - - - - W 13 - 7 - 1011.0 1011.0 -
 
Date/Time
WST
Temp
°C
App
Temp
°C
Dew
Point
Rel
Hum
%
Delta-T
°C
Wind Press
QNH
hPa
Press
MSL
hPa
Rain
since 9 am
mm
Dir
 
Spd
km/h
Gust
km/h
Spd
kts
Gust
kts
29/11:30pm 27.0 - - - - W 15 - 8 - 1011.0 - -
29/11:00pm 26.8 - - - - W 17 - 9 - 1011.0 1011.6 -
29/10:30pm 27.0 - - - - W 19 - 10 - 1011.0 - -
29/10:00pm 27.0 - - - - W 17 - 9 - 1012.0 1012.1 -
29/09:30pm 27.0 - - - - W 15 - 8 - 1012.0 - -
29/09:00pm 26.9 - - - - WSW 15 - 8 - 1012.0 1012.2 -
29/08:30pm 27.0 - - - - WSW 13 - 7 - 1012.0 - -
29/08:00pm 27.1 - - - - WSW 11 - 6 - 1012.0 1012.0 -
29/07:30pm 27.0 - - - - WSW 19 - 10 - 1011.0 - -
29/07:00pm 27.1 - - - - WSW 22 - 12 - 1010.0 1010.8 -
29/06:30pm 27.0 - - - - WSW 20 - 11 - 1010.0 - -

Other Formats:

Comma delimited format used in spreadsheet applications
http://www.bom.gov.au/fwo/IDW60801/IDW60801.94103.axf

JavaScript Object Notation format (JSON) in row-major order
http://www.bom.gov.au/fwo/IDW60801/IDW60801.94103.json